San Francisco, California
Traffic Map
Current Weather Conditions
San Francisco, California
Broken Clouds
Broken Clouds
16°
Feels Like: 16°
Wind Chill: 16° Ceiling: 20000
Heat Index: 16° Visibility: 10mi
Dew Point: 11° Wind: 16mph
Humidity: 70% Direction: 300° (WNW)
Pressure: 29.96in Gusts: 0mph
Raw Report DataKSFO 301956Z 30014KT 10SM FEW007 BKN200 16/11 A2996 RMK AO2 SLP145 T01610106
Traffic Incident Summary
Active as of:
Severity:
Category:
InformationThere was an issue retrieving the traffic information for this location. Please try a different location or try again shortly.
Advertisements
Track Severe Weather on mobile